Time;durP1;ratioP1;P1;durP2;ratioP2;P2;SDS_P1;SDS_P2;PMS_P1;PMS_P2;Temp;Humidity;BMP_temperature;BMP_pressure;BME280_temperature;BME280_humidity;BME280_pressure;Samples;Min_cycle;Max_cycle;Signal;HPM_P1;HPM_P2
2023/06/04 00:01:22;;;;;;;8.80;3.35;;;12.90;99.90;;;;;;5012078;28;20079;-73
2023/06/04 00:03:48;;;;;;;6.97;3.17;;;13.00;99.90;;;;;;5011878;28;20045;-74
2023/06/04 00:06:14;;;;;;;6.65;3.20;;;12.90;99.90;;;;;;5011919;28;20048;-73
2023/06/04 00:08:39;;;;;;;9.02;3.45;;;12.90;99.90;;;;;;5011592;28;20041;-73
2023/06/04 00:11:05;;;;;;;8.35;3.60;;;12.80;99.90;;;;;;5012099;28;20041;-72
2023/06/04 00:13:31;;;;;;;9.55;3.17;;;12.80;99.90;;;;;;5011717;28;20050;-72
2023/06/04 00:15:56;;;;;;;10.65;3.88;;;12.80;99.90;;;;;;5011642;28;20053;-72
2023/06/04 00:18:22;;;;;;;12.98;4.53;;;12.80;99.90;;;;;;5011748;28;20030;-72
2023/06/04 00:20:47;;;;;;;9.10;3.25;;;12.70;99.90;;;;;;5010387;28;20041;-72
2023/06/04 00:23:13;;;;;;;10.20;3.90;;;12.70;99.90;;;;;;5011719;28;20042;-72
2023/06/04 00:25:38;;;;;;;8.88;3.40;;;12.70;99.90;;;;;;5011361;28;20052;-72
2023/06/04 00:28:04;;;;;;;13.95;5.05;;;12.80;99.90;;;;;;5010286;28;20069;-72
2023/06/04 00:30:30;;;;;;;13.73;4.50;;;12.80;99.90;;;;;;5011420;28;20116;-72
2023/06/04 00:32:55;;;;;;;7.43;3.38;;;12.80;99.90;;;;;;5010415;28;20038;-72
2023/06/04 00:35:21;;;;;;;11.02;3.22;;;12.80;99.90;;;;;;5010293;28;20129;-72
2023/06/04 00:37:47;;;;;;;7.47;3.53;;;12.70;99.90;;;;;;5011504;28;20052;-72
2023/06/04 00:40:12;;;;;;;9.88;4.03;;;12.70;99.90;;;;;;5012722;28;20042;-72
2023/06/04 00:42:38;;;;;;;10.32;3.60;;;12.60;99.90;;;;;;5015655;28;20077;-72
2023/06/04 00:45:07;;;;;;;9.75;3.65;;;12.60;99.90;;;;;;5014126;28;20045;-71
2023/06/04 00:47:33;;;;;;;13.10;4.18;;;12.50;99.90;;;;;;4997520;28;20049;-72
2023/06/04 00:49:59;;;;;;;9.02;3.75;;;12.50;99.90;;;;;;5015008;28;20046;-71
2023/06/04 00:52:25;;;;;;;6.47;3.30;;;12.50;99.90;;;;;;5015047;28;20192;-71
2023/06/04 00:54:52;;;;;;;10.15;3.17;;;12.50;99.90;;;;;;5014130;28;20038;-72
2023/06/04 00:57:17;;;;;;;8.02;3.60;;;12.50;99.90;;;;;;5013881;28;20573;-72
2023/06/04 00:59:43;;;;;;;9.73;3.45;;;12.50;99.90;;;;;;5013678;28;20085;-72
2023/06/04 01:02:13;;;;;;;7.00;3.33;;;12.50;99.90;;;;;;5014938;28;20060;-72
2023/06/04 01:05:03;;;;;;;11.18;4.20;;;12.60;99.90;;;;;;5013902;28;20092;-72
2023/06/04 01:07:30;;;;;;;11.43;4.25;;;12.60;99.90;;;;;;5015074;28;20049;-72
2023/06/04 01:09:56;;;;;;;12.93;5.57;;;12.50;99.90;;;;;;5010681;28;20057;-73
2023/06/04 01:12:23;;;;;;;9.43;4.85;;;12.50;99.90;;;;;;5013752;28;20371;-72
2023/06/04 01:14:48;;;;;;;10.07;3.88;;;12.50;99.90;;;;;;5013993;28;20116;-73
2023/06/04 01:17:37;;;;;;;8.43;3.38;;;12.40;99.90;;;;;;5012649;28;20204;-72
2023/06/04 01:20:22;;;;;;;7.75;3.33;;;12.40;99.90;;;;;;5013351;28;20041;-73
2023/06/04 01:23:00;;;;;;;6.28;3.15;;;12.30;99.90;;;;;;5013689;28;20056;-72
2023/06/04 01:25:43;;;;;;;11.82;3.30;;;12.40;99.90;;;;;;5013791;28;20049;-72
2023/06/04 01:28:11;;;;;;;9.68;2.80;;;12.30;99.90;;;;;;5013716;28;20478;-72
2023/06/04 01:30:42;;;;;;;7.63;2.97;;;12.30;99.90;;;;;;5014513;28;20449;-72
2023/06/04 01:33:10;;;;;;;7.80;3.15;;;12.30;99.90;;;;;;5013337;28;20038;-72
2023/06/04 01:35:36;;;;;;;8.32;3.08;;;12.30;99.90;;;;;;5013168;28;20038;-72
2023/06/04 01:38:01;;;;;;;8.20;3.40;;;12.30;99.90;;;;;;5014145;28;20037;-72
2023/06/04 01:40:27;;;;;;;9.32;3.55;;;12.30;99.90;;;;;;5014045;28;20038;-72
2023/06/04 01:42:53;;;;;;;8.07;3.60;;;12.30;99.90;;;;;;5014547;28;20096;-72
2023/06/04 01:45:20;;;;;;;8.70;3.65;;;12.30;99.90;;;;;;5014398;28;20100;-72
2023/06/04 01:47:46;;;;;;;12.55;4.03;;;12.30;99.90;;;;;;5014327;28;20038;-72
2023/06/04 01:50:11;;;;;;;10.27;4.35;;;12.20;99.90;;;;;;5011493;28;20092;-72
2023/06/04 01:52:38;;;;;;;9.73;4.72;;;12.20;99.90;;;;;;5012621;28;20142;-73
2023/06/04 01:55:04;;;;;;;9.52;4.10;;;12.20;99.90;;;;;;5012826;28;20042;-72
2023/06/04 01:57:30;;;;;;;12.43;5.22;;;12.20;99.90;;;;;;5012058;28;20045;-72
2023/06/04 01:59:56;;;;;;;14.98;4.93;;;12.20;99.90;;;;;;5013605;28;20034;-72
2023/06/04 02:02:21;;;;;;;11.20;4.15;;;12.20;99.90;;;;;;4996241;28;20091;-72
2023/06/04 02:04:47;;;;;;;8.15;4.43;;;12.20;99.90;;;;;;5013961;28;20417;-72
2023/06/04 02:07:17;;;;;;;13.48;5.68;;;12.10;99.90;;;;;;5013685;28;20073;-72
2023/06/04 02:09:43;;;;;;;12.27;5.90;;;12.10;99.90;;;;;;5013560;28;20037;-72
2023/06/04 02:12:09;;;;;;;14.13;5.45;;;12.10;99.90;;;;;;5013773;28;20048;-73
2023/06/04 02:14:34;;;;;;;14.98;5.35;;;12.10;99.90;;;;;;5013858;28;20041;-72
2023/06/04 02:17:00;;;;;;;15.20;5.20;;;12.10;99.90;;;;;;5012606;28;20073;-73
2023/06/04 02:19:26;;;;;;;13.18;4.70;;;12.10;99.90;;;;;;5012200;28;20494;-72
2023/06/04 02:21:53;;;;;;;12.50;5.10;;;12.10;99.90;;;;;;5013604;28;20045;-72
2023/06/04 02:24:19;;;;;;;9.80;4.75;;;12.10;99.90;;;;;;5012247;28;20034;-72
2023/06/04 02:26:45;;;;;;;12.38;4.95;;;12.10;99.90;;;;;;5011928;28;20036;-72
2023/06/04 02:29:10;;;;;;;12.82;5.80;;;12.00;99.90;;;;;;5011925;28;20034;-72
2023/06/04 02:31:36;;;;;;;17.02;5.93;;;12.00;99.90;;;;;;5012205;28;20100;-73
2023/06/04 02:34:02;;;;;;;13.93;5.80;;;12.00;99.90;;;;;;4995759;28;20048;-72
2023/06/04 02:36:29;;;;;;;11.80;5.13;;;11.90;99.90;;;;;;5013109;28;20044;-72
2023/06/04 02:38:55;;;;;;;14.77;6.00;;;11.90;99.90;;;;;;5012972;28;20042;-72
2023/06/04 02:41:22;;;;;;;11.25;5.80;;;12.00;99.90;;;;;;4995662;28;20042;-72
2023/06/04 02:43:47;;;;;;;16.05;6.50;;;11.90;99.90;;;;;;5013346;28;20050;-72
2023/06/04 02:46:13;;;;;;;12.95;6.18;;;12.00;99.90;;;;;;4995542;28;20076;-72
2023/06/04 02:48:39;;;;;;;15.25;5.75;;;12.00;99.90;;;;;;5012920;28;20100;-72
2023/06/04 02:51:05;;;;;;;22.23;6.22;;;11.90;99.90;;;;;;5013137;28;20168;-72
2023/06/04 02:53:30;;;;;;;12.20;6.20;;;11.90;99.90;;;;;;5011592;28;20080;-72
2023/06/04 02:55:56;;;;;;;14.65;5.68;;;12.00;99.90;;;;;;5012976;28;20042;-72
2023/06/04 02:58:26;;;;;;;16.33;6.32;;;11.90;99.90;;;;;;4995201;28;20544;-72
2023/06/04 03:00:55;;;;;;;16.90;6.28;;;11.90;99.90;;;;;;5012948;28;20079;-72
2023/06/04 03:03:21;;;;;;;11.55;5.18;;;11.90;99.90;;;;;;5011127;28;20048;-72
2023/06/04 03:05:46;;;;;;;9.68;5.35;;;11.80;99.90;;;;;;5012695;28;20116;-72
2023/06/04 03:08:12;;;;;;;10.80;4.55;;;11.90;99.90;;;;;;5012488;28;20458;-72
2023/06/04 03:10:38;;;;;;;10.10;4.38;;;11.80;99.90;;;;;;5011450;28;20443;-72
2023/06/04 03:13:04;;;;;;;12.25;4.60;;;11.80;99.90;;;;;;5011600;28;20068;-72
2023/06/04 03:15:29;;;;;;;8.55;4.28;;;11.80;99.90;;;;;;5011518;28;20061;-72
2023/06/04 03:17:55;;;;;;;11.13;4.68;;;11.80;99.90;;;;;;5010982;28;20355;-73
2023/06/04 03:20:23;;;;;;;13.73;5.07;;;11.80;99.90;;;;;;4994491;28;20038;-72
2023/06/04 03:22:50;;;;;;;9.20;4.85;;;11.90;99.90;;;;;;5011427;28;20042;-72
2023/06/04 03:25:15;;;;;;;11.57;5.00;;;11.80;99.90;;;;;;5012956;28;20117;-73
2023/06/04 03:27:41;;;;;;;10.07;4.55;;;11.80;99.90;;;;;;5011275;28;20121;-72
2023/06/04 03:30:07;;;;;;;8.98;4.43;;;11.80;99.90;;;;;;5011073;28;20037;-72
2023/06/04 03:32:33;;;;;;;13.88;4.93;;;11.80;99.90;;;;;;5012219;28;20041;-72
2023/06/04 03:35:00;;;;;;;9.55;4.70;;;11.70;99.90;;;;;;5011221;28;20045;-72
2023/06/04 03:37:26;;;;;;;9.05;4.80;;;11.70;99.90;;;;;;4994755;28;20041;-72
2023/06/04 03:39:52;;;;;;;9.70;5.00;;;11.70;99.90;;;;;;5012110;28;20577;-72
2023/06/04 03:42:18;;;;;;;11.10;4.63;;;11.70;99.90;;;;;;4994722;28;20172;-72
2023/06/04 03:44:44;;;;;;;10.68;4.80;;;11.80;99.90;;;;;;5012204;28;20095;-72
2023/06/04 03:47:10;;;;;;;9.13;5.03;;;11.80;99.90;;;;;;5010813;28;20523;-72
2023/06/04 03:49:35;;;;;;;11.50;4.90;;;11.80;99.90;;;;;;5010594;28;20041;-72
2023/06/04 03:52:01;;;;;;;9.15;5.53;;;11.80;99.90;;;;;;5010695;28;20045;-72
2023/06/04 03:54:26;;;;;;;10.93;5.70;;;11.80;99.90;;;;;;5011979;28;20036;-72
2023/06/04 03:56:52;;;;;;;13.10;6.15;;;11.80;99.90;;;;;;5010529;28;20088;-72
2023/06/04 03:59:18;;;;;;;10.63;6.03;;;11.80;99.90;;;;;;5010719;28;20040;-72
2023/06/04 04:01:43;;;;;;;11.10;6.57;;;11.70;99.90;;;;;;5011817;28;20038;-72
2023/06/04 04:04:09;;;;;;;8.82;5.20;;;11.80;99.90;;;;;;5010525;28;20044;-72
2023/06/04 04:06:35;;;;;;;11.55;6.05;;;11.70;99.90;;;;;;5010711;28;20034;-72
2023/06/04 04:09:02;;;;;;;13.65;5.82;;;11.60;99.90;;;;;;4994103;28;20790;-72
2023/06/04 04:11:28;;;;;;;14.88;5.85;;;11.70;99.90;;;;;;5012080;28;20049;-72
2023/06/04 04:13:54;;;;;;;12.10;6.10;;;11.60;99.90;;;;;;5012605;28;20038;-72
2023/06/04 04:16:19;;;;;;;10.88;6.90;;;11.80;99.90;;;;;;4998551;28;20069;-72
2023/06/04 04:18:45;;;;;;;12.18;6.35;;;11.80;99.90;;;;;;5015393;28;20545;-72
2023/06/04 04:21:11;;;;;;;11.40;5.30;;;11.80;99.90;;;;;;5014508;28;20068;-72
2023/06/04 04:23:40;;;;;;;12.50;5.55;;;11.90;99.90;;;;;;5015962;28;20121;-72
2023/06/04 04:26:06;;;;;;;8.35;5.40;;;11.90;99.90;;;;;;4998055;28;20042;-72
2023/06/04 04:28:32;;;;;;;14.35;5.82;;;11.90;99.90;;;;;;5015678;28;20117;-72
2023/06/04 04:30:59;;;;;;;14.05;6.32;;;11.90;99.90;;;;;;5015640;28;20052;-72
2023/06/04 04:33:25;;;;;;;13.57;5.40;;;12.00;99.90;;;;;;5015527;28;20046;-72
2023/06/04 04:35:52;;;;;;;11.48;5.95;;;11.90;99.90;;;;;;5015766;28;20516;-72
2023/06/04 04:38:19;;;;;;;8.38;4.82;;;12.10;99.90;;;;;;5015540;28;20085;-72
2023/06/04 04:40:47;;;;;;;16.08;5.43;;;12.10;99.90;;;;;;5015548;28;20097;-72
2023/06/04 04:43:13;;;;;;;12.85;6.93;;;12.30;99.90;;;;;;5015503;28;20057;-72
2023/06/04 04:45:39;;;;;;;8.25;5.20;;;12.30;99.90;;;;;;5014167;28;20088;-72
2023/06/04 04:48:05;;;;;;;11.10;5.60;;;12.40;99.90;;;;;;5015092;28;20038;-72
2023/06/04 04:50:31;;;;;;;13.57;5.65;;;12.50;99.90;;;;;;5013807;28;20121;-72
2023/06/04 04:52:57;;;;;;;11.48;4.40;;;12.60;99.90;;;;;;5013838;28;20038;-72
2023/06/04 04:55:23;;;;;;;11.68;5.32;;;12.70;99.90;;;;;;5015165;28;20156;-72
2023/06/04 04:57:48;;;;;;;7.47;4.35;;;12.90;99.90;;;;;;5013981;28;20069;-72
2023/06/04 05:00:15;;;;;;;7.78;4.63;;;13.10;99.90;;;;;;5014901;28;20040;-72
2023/06/04 05:02:41;;;;;;;7.03;4.13;;;13.30;99.90;;;;;;5014922;28;20045;-72
2023/06/04 05:05:06;;;;;;;11.18;5.35;;;13.50;99.90;;;;;;5014225;28;20073;-73
2023/06/04 05:07:32;;;;;;;11.10;5.57;;;13.60;99.90;;;;;;5013772;28;20045;-73
2023/06/04 05:09:58;;;;;;;11.07;4.30;;;13.80;99.90;;;;;;5012889;28;20046;-72
2023/06/04 05:12:26;;;;;;;16.08;5.00;;;14.10;99.90;;;;;;5012984;28;20050;-72
2023/06/04 05:14:52;;;;;;;8.80;4.90;;;14.20;99.90;;;;;;4997190;28;20042;-72
2023/06/04 05:17:21;;;;;;;11.55;5.47;;;14.50;99.90;;;;;;5014558;28;20405;-72
2023/06/04 05:19:47;;;;;;;12.43;5.90;;;14.60;99.90;;;;;;5013002;28;20041;-73
2023/06/04 05:22:15;;;;;;;13.40;5.28;;;14.80;99.90;;;;;;5013715;28;20042;-73
2023/06/04 05:24:41;;;;;;;10.38;5.20;;;15.00;99.90;;;;;;5013151;28;20069;-73
2023/06/04 05:27:09;;;;;;;10.90;4.60;;;15.00;99.90;;;;;;5014517;28;20049;-73
2023/06/04 05:29:34;;;;;;;10.38;3.97;;;15.20;99.90;;;;;;5014269;28;20038;-72
2023/06/04 05:32:00;;;;;;;10.85;4.80;;;15.20;99.90;;;;;;5014466;28;20042;-72
2023/06/04 05:34:26;;;;;;;14.15;5.07;;;15.20;99.90;;;;;;4996871;28;20560;-72
2023/06/04 05:36:52;;;;;;;12.32;5.25;;;15.30;99.90;;;;;;5013290;28;20069;-73
2023/06/04 05:39:18;;;;;;;17.00;5.43;;;15.40;99.90;;;;;;5014253;28;20034;-73
2023/06/04 05:41:45;;;;;;;9.88;4.57;;;15.60;99.90;;;;;;5013140;28;20049;-73
2023/06/04 05:44:10;;;;;;;11.18;4.50;;;15.60;99.90;;;;;;5012961;28;20042;-73
2023/06/04 05:46:36;;;;;;;12.75;4.05;;;15.80;99.90;;;;;;5014339;28;20191;-73
2023/06/04 05:49:02;;;;;;;16.02;5.68;;;15.90;99.90;;;;;;5013979;28;20044;-73
2023/06/04 05:51:28;;;;;;;12.23;4.60;;;16.20;99.90;;;;;;5014162;28;20048;-72
2023/06/04 05:53:54;;;;;;;9.63;3.88;;;16.40;99.90;;;;;;5013910;28;20125;-73
2023/06/04 05:56:21;;;;;;;9.68;3.72;;;16.50;99.90;;;;;;5013959;28;20256;-73
2023/06/04 05:58:52;;;;;;;9.85;4.22;;;16.60;99.90;;;;;;5012441;28;20046;-73
2023/06/04 06:01:17;;;;;;;15.10;3.83;;;16.70;99.90;;;;;;5013920;28;20041;-73
2023/06/04 06:03:43;;;;;;;8.90;3.78;;;16.70;99.90;;;;;;5012508;28;20045;-73
2023/06/04 06:06:10;;;;;;;10.05;2.88;;;16.90;99.90;;;;;;5013880;28;20046;-73
2023/06/04 06:08:35;;;;;;;6.68;2.90;;;17.10;99.90;;;;;;4996161;28;20132;-73
2023/06/04 06:11:04;;;;;;;6.43;2.83;;;17.10;99.90;;;;;;5013653;28;20121;-74
2023/06/04 06:13:29;;;;;;;8.00;2.38;;;16.90;99.90;;;;;;5006011;28;20053;-72
2023/06/04 06:15:55;;;;;;;11.70;2.13;;;17.10;99.90;;;;;;5012357;28;20470;-73
2023/06/04 06:18:21;;;;;;;11.07;2.58;;;17.30;99.90;;;;;;5011802;28;20606;-73
2023/06/04 06:20:46;;;;;;;7.45;2.75;;;17.50;99.90;;;;;;5012403;28;20037;-73
2023/06/04 06:23:12;;;;;;;5.88;2.28;;;17.40;99.90;;;;;;5011006;28;20458;-73
2023/06/04 06:25:40;;;;;;;8.82;2.13;;;17.60;99.90;;;;;;5012325;28;20120;-73
2023/06/04 06:28:06;;;;;;;6.30;2.17;;;17.50;99.90;;;;;;5012381;28;20042;-73
2023/06/04 06:30:32;;;;;;;8.32;2.45;;;17.90;99.90;;;;;;5012558;28;20049;-73
2023/06/04 06:32:58;;;;;;;7.70;1.98;;;17.90;99.90;;;;;;5011169;28;20034;-73
2023/06/04 06:35:23;;;;;;;5.05;2.00;;;17.80;99.90;;;;;;5012404;28;20512;-73
2023/06/04 06:37:49;;;;;;;5.80;1.55;;;17.90;99.90;;;;;;5010276;28;20099;-73
2023/06/04 06:40:14;;;;;;;5.03;1.70;;;18.10;99.70;;;;;;5011974;28;20041;-73
2023/06/04 06:42:40;;;;;;;5.80;2.00;;;18.00;99.70;;;;;;5011724;28;20509;-73
2023/06/04 06:45:06;;;;;;;4.25;1.48;;;18.10;99.30;;;;;;5012450;28;20041;-72
2023/06/04 06:47:32;;;;;;;4.30;1.75;;;18.10;98.30;;;;;;5012207;28;20050;-72
2023/06/04 06:49:57;;;;;;;6.47;1.63;;;18.20;97.70;;;;;;5010767;28;20516;-72
2023/06/04 06:52:23;;;;;;;7.85;1.85;;;18.50;97.00;;;;;;5010861;28;20034;-72
2023/06/04 06:54:48;;;;;;;5.53;2.63;;;18.80;96.30;;;;;;5012097;28;20127;-72
2023/06/04 06:57:15;;;;;;;7.60;2.03;;;19.10;96.00;;;;;;5010657;28;20046;-72
2023/06/04 06:59:40;;;;;;;7.80;2.05;;;19.20;94.70;;;;;;5010849;28;20397;-73
2023/06/04 07:02:07;;;;;;;7.25;2.38;;;19.20;93.20;;;;;;5005660;28;20034;-74
2023/06/04 07:04:32;;;;;;;3.83;1.83;;;19.40;93.00;;;;;;5011687;28;20375;-72
2023/06/04 07:06:58;;;;;;;7.40;1.85;;;19.40;92.10;;;;;;5011635;28;20041;-72
2023/06/04 07:09:23;;;;;;;4.57;1.58;;;19.50;91.30;;;;;;5011401;28;20560;-73
2023/06/04 07:11:49;;;;;;;4.88;1.88;;;19.60;88.20;;;;;;5010231;28;20069;-73
2023/06/04 07:14:14;;;;;;;5.50;1.75;;;19.60;85.10;;;;;;5011769;28;20041;-72
2023/06/04 07:16:40;;;;;;;6.15;1.83;;;19.70;83.40;;;;;;5003329;28;20108;-73
2023/06/04 07:19:06;;;;;;;3.88;1.60;;;19.60;82.30;;;;;;4976059;28;1034372;-73
2023/06/04 07:21:31;;;;;;;2.72;1.27;;;19.70;79.60;;;;;;5011359;28;20453;-72
2023/06/04 07:23:57;;;;;;;4.93;1.42;;;19.70;74.40;;;;;;5012482;28;20042;-72
2023/06/04 07:26:22;;;;;;;4.72;1.60;;;19.60;71.90;;;;;;5011275;28;20537;-73
2023/06/04 07:28:48;;;;;;;2.55;1.30;;;19.70;71.50;;;;;;5012411;28;20049;-72
2023/06/04 07:31:17;;;;;;;4.47;1.25;;;19.80;71.50;;;;;;5012286;28;20073;-73
2023/06/04 07:33:43;;;;;;;4.68;1.83;;;19.80;70.10;;;;;;4994738;28;20046;-72
2023/06/04 07:36:17;;;;;;;6.38;1.50;;;19.80;70.20;;;;;;5012293;28;20520;-71
2023/06/04 07:38:43;;;;;;;4.93;1.30;;;20.00;67.80;;;;;;5011046;28;20188;-72
2023/06/04 07:41:09;;;;;;;4.50;1.83;;;20.30;68.00;;;;;;5012424;28;20513;-72
2023/06/04 07:43:35;;;;;;;5.47;1.50;;;20.10;65.30;;;;;;5012285;28;20073;-72
2023/06/04 07:46:04;;;;;;;3.20;1.40;;;20.10;65.00;;;;;;5012133;28;20041;-73
2023/06/04 07:48:30;;;;;;;1.63;0.82;;;19.90;63.00;;;;;;5012097;28;20049;-73
2023/06/04 07:51:00;;;;;;;6.15;1.10;;;20.20;63.10;;;;;;5012138;28;20358;-72
2023/06/04 07:53:26;;;;;;;3.50;1.50;;;20.30;61.60;;;;;;5011850;28;20529;-73
2023/06/04 07:55:52;;;;;;;2.25;1.20;;;20.50;62.60;;;;;;5004329;28;20409;-72
2023/06/04 07:58:17;;;;;;;1.67;0.93;;;20.80;61.10;;;;;;5010216;28;20042;-74
2023/06/04 08:00:43;;;;;;;4.60;1.30;;;20.90;59.90;;;;;;5010706;28;20402;-72
2023/06/04 08:03:08;;;;;;;3.90;1.50;;;20.80;58.60;;;;;;5011687;28;20034;-72
2023/06/04 08:05:34;;;;;;;4.43;1.10;;;20.90;59.20;;;;;;5010406;28;20048;-71
2023/06/04 08:08:01;;;;;;;5.00;1.63;;;21.10;58.80;;;;;;5011393;28;20420;-73
2023/06/04 08:10:26;;;;;;;4.38;1.17;;;21.20;59.00;;;;;;5010300;28;20448;-74
2023/06/04 08:12:52;;;;;;;2.95;1.10;;;21.10;58.70;;;;;;5011418;28;20038;-73
2023/06/04 08:15:17;;;;;;;3.28;1.40;;;21.00;57.30;;;;;;5011472;28;20038;-74
2023/06/04 08:17:43;;;;;;;6.65;1.38;;;21.10;59.00;;;;;;5011283;28;20034;-73
2023/06/04 08:20:09;;;;;;;2.92;1.25;;;21.20;58.60;;;;;;5011351;28;20037;-74
2023/06/04 08:22:34;;;;;;;4.43;1.20;;;21.10;58.30;;;;;;5011457;28;20409;-73
2023/06/04 08:25:00;;;;;;;3.90;1.70;;;21.20;59.20;;;;;;5011701;28;20045;-73
2023/06/04 08:27:25;;;;;;;5.10;1.63;;;21.40;61.00;;;;;;5011657;28;20125;-73
2023/06/04 08:29:52;;;;;;;4.05;1.60;;;21.50;61.30;;;;;;5011831;28;20413;-73
2023/06/04 08:32:18;;;;;;;7.35;1.23;;;21.80;61.70;;;;;;5011455;28;20057;-73
2023/06/04 08:34:43;;;;;;;4.63;1.40;;;21.90;60.90;;;;;;5011336;28;20034;-73
2023/06/04 08:37:10;;;;;;;3.63;1.30;;;21.90;59.90;;;;;;5011273;28;20109;-73
2023/06/04 08:39:36;;;;;;;2.70;1.25;;;21.80;58.90;;;;;;5011339;28;20045;-72
2023/06/04 08:42:07;;;;;;;3.45;1.38;;;21.70;58.80;;;;;;5011426;28;20042;-71
2023/06/04 08:44:33;;;;;;;4.88;1.50;;;22.00;60.00;;;;;;5010067;28;20037;-72
2023/06/04 08:47:05;;;;;;;4.05;1.58;;;22.00;59.60;;;;;;5011188;28;20037;-72
2023/06/04 08:49:36;;;;;;;4.15;1.58;;;22.20;61.70;;;;;;5011055;28;20506;-72
2023/06/04 08:52:02;;;;;;;3.78;1.27;;;22.20;59.70;;;;;;5011360;28;20034;-73
2023/06/04 08:54:29;;;;;;;5.40;1.45;;;22.00;59.40;;;;;;5010205;28;20037;-73
2023/06/04 08:56:56;;;;;;;4.97;1.48;;;21.70;58.70;;;;;;5011116;28;20038;-74
2023/06/04 08:59:22;;;;;;;5.60;1.40;;;21.60;61.90;;;;;;5009749;28;20469;-73
2023/06/04 09:01:51;;;;;;;5.20;1.58;;;21.40;62.70;;;;;;5013927;28;20080;-72
2023/06/04 09:04:16;;;;;;;4.22;1.38;;;21.50;63.70;;;;;;5013621;28;20052;-72
2023/06/04 09:06:42;;;;;;;5.45;2.03;;;21.60;64.00;;;;;;5014656;28;20409;-72
2023/06/04 09:09:10;;;;;;;4.05;1.25;;;21.70;65.60;;;;;;5013160;28;20042;-71
2023/06/04 09:11:39;;;;;;;4.20;1.20;;;21.50;66.80;;;;;;5013491;28;20048;-72
2023/06/04 09:14:08;;;;;;;4.43;1.10;;;21.30;65.50;;;;;;5014399;28;20038;-71
2023/06/04 09:16:54;;;;;;;3.42;1.25;;;21.60;66.30;;;;;;5014572;28;20502;-72
2023/06/04 09:19:21;;;;;;;2.72;1.40;;;21.70;65.30;;;;;;5010310;28;20046;-73
2023/06/04 09:21:57;;;;;;;5.90;1.27;;;21.90;65.60;;;;;;5013284;28;20034;-73
2023/06/04 09:24:25;;;;;;;4.40;1.70;;;21.90;64.60;;;;;;5013188;28;20053;-73
2023/06/04 09:26:51;;;;;;;5.93;1.63;;;21.80;64.60;;;;;;5011186;28;20053;-72
2023/06/04 09:29:19;;;;;;;3.53;1.50;;;21.40;64.40;;;;;;4996364;28;20527;-72
2023/06/04 09:31:46;;;;;;;5.05;1.58;;;21.50;65.60;;;;;;5005155;28;20120;-71
2023/06/04 09:34:12;;;;;;;4.25;1.20;;;21.50;65.50;;;;;;5012907;28;20050;-73
2023/06/04 09:36:38;;;;;;;6.50;1.80;;;21.80;66.60;;;;;;5014114;28;20116;-73
2023/06/04 09:39:17;;;;;;;4.10;1.63;;;21.90;65.20;;;;;;5012997;28;20049;-74
2023/06/04 09:41:43;;;;;;;5.40;2.13;;;21.80;63.20;;;;;;5013740;28;20116;-73
2023/06/04 09:44:10;;;;;;;2.17;1.35;;;21.30;64.50;;;;;;4996376;28;20073;-72
2023/06/04 09:46:36;;;;;;;2.75;1.30;;;21.10;64.90;;;;;;5004002;28;20043;-74
2023/06/04 09:49:05;;;;;;;1.83;1.05;;;21.30;64.30;;;;;;5008731;28;20048;-73
2023/06/04 09:51:31;;;;;;;2.97;1.27;;;21.30;64.50;;;;;;5012899;28;20647;-73
2023/06/04 09:54:00;;;;;;;3.63;1.65;;;21.40;65.40;;;;;;5013696;28;20421;-72
2023/06/04 09:56:26;;;;;;;4.07;1.60;;;21.40;64.30;;;;;;5013521;28;20030;-74
2023/06/04 09:59:00;;;;;;;5.35;1.58;;;21.30;64.80;;;;;;5013409;28;20464;-72
2023/06/04 10:01:26;;;;;;;2.90;1.42;;;21.00;64.50;;;;;;5012468;28;20493;-74
2023/06/04 10:03:53;;;;;;;4.35;1.73;;;21.10;65.50;;;;;;5012254;28;20038;-74
2023/06/04 10:06:21;;;;;;;5.50;1.52;;;21.10;65.50;;;;;;4995928;28;20413;-73
2023/06/04 10:08:49;;;;;;;3.08;1.48;;;21.00;65.60;;;;;;5012300;28;20041;-72
2023/06/04 10:11:19;;;;;;;4.85;1.55;;;20.90;65.10;;;;;;5012751;28;20041;-73
2023/06/04 10:13:54;;;;;;;4.70;1.50;;;21.00;65.50;;;;;;5013326;28;20045;-73
2023/06/04 10:16:20;;;;;;;2.92;1.83;;;21.10;64.80;;;;;;5013331;28;20087;-74
2023/06/04 10:18:47;;;;;;;4.93;1.35;;;21.00;66.00;;;;;;5012986;28;20037;-74
2023/06/04 10:21:14;;;;;;;2.65;1.23;;;20.90;67.00;;;;;;5013279;28;20113;-75
2023/06/04 10:23:41;;;;;;;5.10;1.73;;;21.10;63.90;;;;;;5011860;28;20037;-74
2023/06/04 10:26:08;;;;;;;6.38;2.05;;;21.00;66.30;;;;;;5013219;28;20042;-73
2023/06/04 10:28:34;;;;;;;4.25;1.10;;;20.80;66.00;;;;;;5013105;28;20030;-73
2023/06/04 10:31:00;;;;;;;3.63;1.35;;;20.80;66.40;;;;;;5011896;28;20064;-73
2023/06/04 10:33:26;;;;;;;5.00;1.73;;;20.80;65.90;;;;;;5013138;28;20132;-72
2023/06/04 10:35:55;;;;;;;3.80;1.40;;;20.90;65.30;;;;;;5012781;28;20066;-73
2023/06/04 10:38:22;;;;;;;3.72;1.17;;;20.80;64.00;;;;;;5011764;28;20064;-72
2023/06/04 10:40:47;;;;;;;3.17;1.55;;;20.70;63.40;;;;;;5011503;28;20096;-72
2023/06/04 10:43:15;;;;;;;3.15;1.30;;;20.60;64.20;;;;;;5013050;28;20045;-73
2023/06/04 10:45:42;;;;;;;7.07;1.85;;;20.50;62.60;;;;;;5012833;28;20660;-73
2023/06/04 10:48:10;;;;;;;3.15;1.45;;;20.50;62.10;;;;;;5012656;28;20048;-72
2023/06/04 10:50:51;;;;;;;2.42;1.08;;;20.60;62.10;;;;;;5012571;28;20100;-72
2023/06/04 10:53:18;;;;;;;4.30;1.45;;;20.40;66.50;;;;;;5011418;28;20069;-73
2023/06/04 10:55:46;;;;;;;3.47;1.60;;;20.40;66.50;;;;;;5012699;28;20036;-72
2023/06/04 10:58:12;;;;;;;3.15;1.35;;;20.60;67.00;;;;;;5012558;28;20041;-72
2023/06/04 11:00:39;;;;;;;2.17;1.25;;;20.50;66.10;;;;;;5012623;28;20037;-76
2023/06/04 11:03:10;;;;;;;3.38;1.40;;;20.60;67.00;;;;;;4994736;28;20560;-74
2023/06/04 11:05:36;;;;;;;3.28;2.13;;;20.60;67.20;;;;;;5011279;28;20092;-72
2023/06/04 11:08:03;;;;;;;3.03;1.33;;;20.60;67.40;;;;;;5012647;28;20124;-72
2023/06/04 11:10:34;;;;;;;5.13;1.55;;;20.60;67.60;;;;;;5011208;28;20061;-72
2023/06/04 11:12:59;;;;;;;5.55;1.92;;;20.50;66.00;;;;;;5012528;28;20049;-72
2023/06/04 11:15:25;;;;;;;6.65;2.13;;;20.10;68.00;;;;;;5011330;28;20107;-72
2023/06/04 11:17:52;;;;;;;4.53;1.35;;;20.50;74.20;;;;;;5012499;28;20030;-72
2023/06/04 11:20:19;;;;;;;4.25;1.35;;;20.40;72.40;;;;;;5034912;23;20289;-67
2023/06/04 11:22:59;;;;;;;6.10;1.90;;;20.30;70.50;;;;;;5012260;28;20121;-67
2023/06/04 11:25:26;;;;;;;4.78;1.45;;;20.40;69.10;;;;;;5012386;28;20081;-67
2023/06/04 11:27:55;;;;;;;4.22;1.23;;;20.30;70.40;;;;;;5012431;28;20117;-67
2023/06/04 11:30:22;;;;;;;3.00;1.63;;;20.50;71.40;;;;;;5011784;28;20034;-67
2023/06/04 11:32:48;;;;;;;5.00;1.58;;;20.50;68.70;;;;;;5012399;28;20050;-67
2023/06/04 11:35:14;;;;;;;3.20;1.20;;;20.40;67.70;;;;;;5012248;28;20509;-67
2023/06/04 11:37:40;;;;;;;3.58;1.70;;;20.30;68.80;;;;;;5012180;28;20033;-68
2023/06/04 11:40:17;;;;;;;5.25;2.00;;;20.30;70.10;;;;;;5011902;28;20034;-67
2023/06/04 11:42:43;;;;;;;4.15;1.85;;;20.20;70.40;;;;;;5012378;28;20048;-67
2023/06/04 11:45:17;;;;;;;3.53;1.75;;;20.30;70.70;;;;;;5012514;28;20049;-67
2023/06/04 11:47:48;;;;;;;3.70;1.20;;;19.90;70.50;;;;;;5005816;28;20125;-67
2023/06/04 11:50:14;;;;;;;2.90;1.58;;;19.60;71.00;;;;;;5006754;28;20092;-67
2023/06/04 11:52:41;;;;;;;2.90;1.63;;;19.80;73.40;;;;;;5011598;28;20041;-67
2023/06/04 11:55:11;;;;;;;2.88;1.42;;;19.60;73.20;;;;;;5012167;28;20042;-67
2023/06/04 11:57:40;;;;;;;6.43;2.15;;;19.60;74.20;;;;;;5011779;28;20359;-66
2023/06/04 12:00:09;;;;;;;7.25;2.13;;;19.60;74.30;;;;;;5011090;28;20041;-67
2023/06/04 12:02:36;;;;;;;3.90;1.83;;;19.80;74.30;;;;;;5011420;28;20073;-67
2023/06/04 12:05:15;;;;;;;4.07;1.50;;;20.00;73.30;;;;;;5010278;28;20056;-66
2023/06/04 12:07:41;;;;;;;3.55;1.48;;;20.10;72.20;;;;;;5008796;28;20057;-72
2023/06/04 12:10:11;;;;;;;3.45;1.55;;;20.00;72.30;;;;;;5005255;28;20045;-70
2023/06/04 12:12:37;;;;;;;4.65;1.98;;;19.90;73.80;;;;;;5009557;28;20077;-67
2023/06/04 12:15:05;;;;;;;4.43;2.10;;;20.00;73.90;;;;;;5010917;28;20034;-67
2023/06/04 12:17:32;;;;;;;4.78;1.50;;;19.70;76.10;;;;;;5010598;28;20088;-67
2023/06/04 12:19:58;;;;;;;4.95;1.60;;;19.50;77.10;;;;;;5010454;28;20053;-67
2023/06/04 12:22:25;;;;;;;3.03;1.63;;;19.30;77.50;;;;;;5010426;28;20121;-67
2023/06/04 12:25:02;;;;;;;3.28;2.08;;;19.40;78.20;;;;;;5008398;28;20083;-66
2023/06/04 12:27:27;;;;;;;6.93;1.50;;;19.60;77.20;;;;;;5010052;28;20120;-66
2023/06/04 12:30:01;;;;;;;6.30;2.00;;;19.80;77.70;;;;;;5010543;28;20044;-66
2023/06/04 12:32:27;;;;;;;5.63;1.73;;;19.90;75.60;;;;;;5009318;28;20080;-66
2023/06/04 12:34:53;;;;;;;5.43;1.88;;;19.60;76.00;;;;;;5011171;28;20086;-66
2023/06/04 12:37:25;;;;;;;5.38;1.45;;;19.70;78.50;;;;;;5013549;28;20033;-67
2023/06/04 12:39:51;;;;;;;4.60;1.88;;;19.70;78.10;;;;;;5013444;28;20041;-67
2023/06/04 12:42:19;;;;;;;4.43;1.70;;;19.50;77.60;;;;;;5013334;28;20045;-67